sensor_id;sensor_type;location;lat;lon;timestamp;temperature;humidity
52543;DHT22;38449;52.696;6.186;2023-12-20T00:00:05;6.50;99.90
52543;DHT22;38449;52.696;6.186;2023-12-20T00:02:32;6.40;99.90
52543;DHT22;38449;52.696;6.186;2023-12-20T00:04:58;6.40;99.90
52543;DHT22;38449;52.696;6.186;2023-12-20T00:07:24;6.30;99.90
52543;DHT22;38449;52.696;6.186;2023-12-20T00:09:51;6.30;99.90
52543;DHT22;38449;52.696;6.186;2023-12-20T00:12:17;6.40;99.90
52543;DHT22;38449;52.696;6.186;2023-12-20T00:14:43;6.40;99.90
52543;DHT22;38449;52.696;6.186;2023-12-20T00:17:10;6.30;99.90
52543;DHT22;38449;52.696;6.186;2023-12-20T00:19:38;6.20;99.90
52543;DHT22;38449;52.696;6.186;2023-12-20T00:22:04;6.30;99.90
52543;DHT22;38449;52.696;6.186;2023-12-20T00:24:31;6.30;99.90
52543;DHT22;38449;52.696;6.186;2023-12-20T00:26:57;6.30;99.90
52543;DHT22;38449;52.696;6.186;2023-12-20T00:29:23;6.30;99.90
52543;DHT22;38449;52.696;6.186;2023-12-20T00:31:50;6.40;99.90
52543;DHT22;38449;52.696;6.186;2023-12-20T00:34:16;6.30;99.90
52543;DHT22;38449;52.696;6.186;2023-12-20T00:36:42;6.50;99.90
52543;DHT22;38449;52.696;6.186;2023-12-20T00:39:08;6.50;99.90
52543;DHT22;38449;52.696;6.186;2023-12-20T00:41:35;6.30;99.90
52543;DHT22;38449;52.696;6.186;2023-12-20T00:44:01;6.30;99.90
52543;DHT22;38449;52.696;6.186;2023-12-20T00:46:27;6.30;99.90
52543;DHT22;38449;52.696;6.186;2023-12-20T00:48:54;6.50;99.90
52543;DHT22;38449;52.696;6.186;2023-12-20T00:51:20;6.30;99.90
52543;DHT22;38449;52.696;6.186;2023-12-20T00:53:47;6.30;99.90
52543;DHT22;38449;52.696;6.186;2023-12-20T00:56:15;6.50;99.90
52543;DHT22;38449;52.696;6.186;2023-12-20T00:58:42;6.50;99.90
52543;DHT22;38449;52.696;6.186;2023-12-20T01:01:08;6.40;99.90
52543;DHT22;38449;52.696;6.186;2023-12-20T01:03:34;6.50;99.90
52543;DHT22;38449;52.696;6.186;2023-12-20T01:06:00;6.60;99.90
52543;DHT22;38449;52.696;6.186;2023-12-20T01:08:27;6.60;99.90
52543;DHT22;38449;52.696;6.186;2023-12-20T01:10:53;6.40;99.90
52543;DHT22;38449;52.696;6.186;2023-12-20T01:13:19;6.60;99.90
52543;DHT22;38449;52.696;6.186;2023-12-20T01:15:46;6.60;99.90
52543;DHT22;38449;52.696;6.186;2023-12-20T01:18:13;6.60;99.90
52543;DHT22;38449;52.696;6.186;2023-12-20T01:20:40;6.50;99.90
52543;DHT22;38449;52.696;6.186;2023-12-20T01:23:06;6.70;99.90
52543;DHT22;38449;52.696;6.186;2023-12-20T01:25:33;6.60;99.90
52543;DHT22;38449;52.696;6.186;2023-12-20T01:27:59;6.60;99.90
52543;DHT22;38449;52.696;6.186;2023-12-20T01:30:25;6.40;99.90
52543;DHT22;38449;52.696;6.186;2023-12-20T01:32:52;6.50;99.90
52543;DHT22;38449;52.696;6.186;2023-12-20T01:35:18;6.40;99.90
52543;DHT22;38449;52.696;6.186;2023-12-20T01:37:44;6.40;99.90
52543;DHT22;38449;52.696;6.186;2023-12-20T01:40:11;6.40;99.90
52543;DHT22;38449;52.696;6.186;2023-12-20T01:42:37;6.50;99.90
52543;DHT22;38449;52.696;6.186;2023-12-20T01:45:04;6.50;99.90
52543;DHT22;38449;52.696;6.186;2023-12-20T01:47:30;6.60;99.90
52543;DHT22;38449;52.696;6.186;2023-12-20T01:49:57;6.60;99.90
52543;DHT22;38449;52.696;6.186;2023-12-20T01:52:24;6.50;99.90
52543;DHT22;38449;52.696;6.186;2023-12-20T01:54:51;6.60;99.90
52543;DHT22;38449;52.696;6.186;2023-12-20T01:57:21;6.50;99.90
52543;DHT22;38449;52.696;6.186;2023-12-20T01:59:47;6.40;99.90
52543;DHT22;38449;52.696;6.186;2023-12-20T02:02:14;6.50;99.90
52543;DHT22;38449;52.696;6.186;2023-12-20T02:04:40;6.40;99.90
52543;DHT22;38449;52.696;6.186;2023-12-20T02:07:07;6.40;99.90
52543;DHT22;38449;52.696;6.186;2023-12-20T02:09:35;6.40;99.90
52543;DHT22;38449;52.696;6.186;2023-12-20T02:12:03;6.40;99.90
52543;DHT22;38449;52.696;6.186;2023-12-20T02:14:30;6.40;99.90
52543;DHT22;38449;52.696;6.186;2023-12-20T02:16:56;6.30;99.90
52543;DHT22;38449;52.696;6.186;2023-12-20T02:19:22;6.50;99.90
52543;DHT22;38449;52.696;6.186;2023-12-20T02:21:49;6.40;99.90
52543;DHT22;38449;52.696;6.186;2023-12-20T02:24:15;6.60;99.90
52543;DHT22;38449;52.696;6.186;2023-12-20T02:26:43;6.50;99.90
52543;DHT22;38449;52.696;6.186;2023-12-20T02:29:10;6.60;99.90
52543;DHT22;38449;52.696;6.186;2023-12-20T02:31:36;6.60;99.90
52543;DHT22;38449;52.696;6.186;2023-12-20T02:34:02;6.70;99.90
52543;DHT22;38449;52.696;6.186;2023-12-20T02:36:30;6.70;99.90
52543;DHT22;38449;52.696;6.186;2023-12-20T02:38:56;6.60;99.90
52543;DHT22;38449;52.696;6.186;2023-12-20T02:41:22;6.80;99.90
52543;DHT22;38449;52.696;6.186;2023-12-20T02:43:49;6.70;99.90
52543;DHT22;38449;52.696;6.186;2023-12-20T02:46:16;6.50;99.90
52543;DHT22;38449;52.696;6.186;2023-12-20T02:48:43;6.50;99.90
52543;DHT22;38449;52.696;6.186;2023-12-20T02:51:09;6.70;99.90
52543;DHT22;38449;52.696;6.186;2023-12-20T02:53:35;6.50;99.90
52543;DHT22;38449;52.696;6.186;2023-12-20T02:56:02;6.70;99.90
52543;DHT22;38449;52.696;6.186;2023-12-20T02:58:28;6.60;99.90
52543;DHT22;38449;52.696;6.186;2023-12-20T03:00:54;6.60;99.90
52543;DHT22;38449;52.696;6.186;2023-12-20T03:03:22;6.70;99.90
52543;DHT22;38449;52.696;6.186;2023-12-20T03:05:48;6.70;99.90
52543;DHT22;38449;52.696;6.186;2023-12-20T03:08:14;6.70;99.90
52543;DHT22;38449;52.696;6.186;2023-12-20T03:10:41;6.80;99.90
52543;DHT22;38449;52.696;6.186;2023-12-20T03:13:07;7.00;99.90
52543;DHT22;38449;52.696;6.186;2023-12-20T03:15:33;6.80;99.90
52543;DHT22;38449;52.696;6.186;2023-12-20T03:18:00;6.90;99.90
52543;DHT22;38449;52.696;6.186;2023-12-20T03:20:26;6.80;99.90
52543;DHT22;38449;52.696;6.186;2023-12-20T03:22:52;6.80;99.90
52543;DHT22;38449;52.696;6.186;2023-12-20T03:25:19;6.80;99.90
52543;DHT22;38449;52.696;6.186;2023-12-20T03:27:45;6.80;99.90
52543;DHT22;38449;52.696;6.186;2023-12-20T03:30:11;6.80;99.90
52543;DHT22;38449;52.696;6.186;2023-12-20T03:32:38;6.90;99.90
52543;DHT22;38449;52.696;6.186;2023-12-20T03:35:05;7.00;99.90
52543;DHT22;38449;52.696;6.186;2023-12-20T03:37:35;7.00;99.90
52543;DHT22;38449;52.696;6.186;2023-12-20T03:40:02;6.80;99.90
52543;DHT22;38449;52.696;6.186;2023-12-20T03:42:30;6.90;99.90
52543;DHT22;38449;52.696;6.186;2023-12-20T03:44:56;6.90;99.90
52543;DHT22;38449;52.696;6.186;2023-12-20T03:47:22;7.10;99.90
52543;DHT22;38449;52.696;6.186;2023-12-20T03:49:49;7.00;99.90
52543;DHT22;38449;52.696;6.186;2023-12-20T03:52:15;6.90;99.90
52543;DHT22;38449;52.696;6.186;2023-12-20T03:54:41;7.20;99.90
52543;DHT22;38449;52.696;6.186;2023-12-20T03:57:08;7.00;99.90
52543;DHT22;38449;52.696;6.186;2023-12-20T03:59:36;6.90;99.90
52543;DHT22;38449;52.696;6.186;2023-12-20T04:02:03;7.10;99.90
52543;DHT22;38449;52.696;6.186;2023-12-20T04:04:30;6.90;99.90
52543;DHT22;38449;52.696;6.186;2023-12-20T04:06:56;7.00;99.90
52543;DHT22;38449;52.696;6.186;2023-12-20T04:09:22;7.00;99.90
52543;DHT22;38449;52.696;6.186;2023-12-20T04:11:49;6.90;99.90
52543;DHT22;38449;52.696;6.186;2023-12-20T04:14:15;6.80;99.90
52543;DHT22;38449;52.696;6.186;2023-12-20T04:16:41;6.90;99.90
52543;DHT22;38449;52.696;6.186;2023-12-20T04:19:08;6.90;99.90
52543;DHT22;38449;52.696;6.186;2023-12-20T04:21:35;6.80;99.90
52543;DHT22;38449;52.696;6.186;2023-12-20T04:24:01;6.70;99.90
52543;DHT22;38449;52.696;6.186;2023-12-20T04:26:28;6.90;99.90
52543;DHT22;38449;52.696;6.186;2023-12-20T04:28:55;6.90;99.90
52543;DHT22;38449;52.696;6.186;2023-12-20T04:31:21;6.80;99.90
52543;DHT22;38449;52.696;6.186;2023-12-20T04:33:48;6.80;99.90
52543;DHT22;38449;52.696;6.186;2023-12-20T04:36:14;7.00;99.90
52543;DHT22;38449;52.696;6.186;2023-12-20T04:38:41;7.00;99.90
52543;DHT22;38449;52.696;6.186;2023-12-20T04:41:07;6.90;99.90
52543;DHT22;38449;52.696;6.186;2023-12-20T04:43:33;6.90;99.90
52543;DHT22;38449;52.696;6.186;2023-12-20T04:45:59;7.10;99.90
52543;DHT22;38449;52.696;6.186;2023-12-20T04:48:26;7.00;99.90
52543;DHT22;38449;52.696;6.186;2023-12-20T04:50:52;7.10;99.90
52543;DHT22;38449;52.696;6.186;2023-12-20T04:53:18;7.00;99.90
52543;DHT22;38449;52.696;6.186;2023-12-20T04:55:45;7.20;99.90
52543;DHT22;38449;52.696;6.186;2023-12-20T04:58:11;7.00;99.90
52543;DHT22;38449;52.696;6.186;2023-12-20T05:00:41;7.00;99.90
52543;DHT22;38449;52.696;6.186;2023-12-20T05:03:07;7.30;99.90
52543;DHT22;38449;52.696;6.186;2023-12-20T05:05:33;7.10;99.90
52543;DHT22;38449;52.696;6.186;2023-12-20T05:08:00;7.30;99.90
52543;DHT22;38449;52.696;6.186;2023-12-20T05:10:26;7.30;99.90
52543;DHT22;38449;52.696;6.186;2023-12-20T05:12:53;7.30;99.90
52543;DHT22;38449;52.696;6.186;2023-12-20T05:15:19;7.20;99.90
52543;DHT22;38449;52.696;6.186;2023-12-20T05:17:46;7.40;99.90
52543;DHT22;38449;52.696;6.186;2023-12-20T05:20:12;7.30;99.90
52543;DHT22;38449;52.696;6.186;2023-12-20T05:22:38;7.20;99.90
52543;DHT22;38449;52.696;6.186;2023-12-20T05:25:05;7.20;99.90
52543;DHT22;38449;52.696;6.186;2023-12-20T05:27:31;7.20;99.90
52543;DHT22;38449;52.696;6.186;2023-12-20T05:29:57;7.30;99.90
52543;DHT22;38449;52.696;6.186;2023-12-20T05:32:24;7.30;99.90
52543;DHT22;38449;52.696;6.186;2023-12-20T05:34:50;7.20;99.90
52543;DHT22;38449;52.696;6.186;2023-12-20T05:37:16;7.30;99.90
52543;DHT22;38449;52.696;6.186;2023-12-20T05:39:43;7.30;99.90
52543;DHT22;38449;52.696;6.186;2023-12-20T05:42:09;7.30;99.90
52543;DHT22;38449;52.696;6.186;2023-12-20T05:44:35;7.30;99.90
52543;DHT22;38449;52.696;6.186;2023-12-20T05:47:02;7.30;99.90
52543;DHT22;38449;52.696;6.186;2023-12-20T05:49:29;7.30;99.90
52543;DHT22;38449;52.696;6.186;2023-12-20T05:51:55;7.30;99.90
52543;DHT22;38449;52.696;6.186;2023-12-20T05:54:21;7.30;99.90
52543;DHT22;38449;52.696;6.186;2023-12-20T05:56:48;7.40;99.90
52543;DHT22;38449;52.696;6.186;2023-12-20T05:59:14;7.30;99.90
52543;DHT22;38449;52.696;6.186;2023-12-20T06:01:41;7.50;99.90
52543;DHT22;38449;52.696;6.186;2023-12-20T06:04:07;7.50;99.90
52543;DHT22;38449;52.696;6.186;2023-12-20T06:06:33;7.50;99.90
52543;DHT22;38449;52.696;6.186;2023-12-20T06:09:00;7.50;99.90
52543;DHT22;38449;52.696;6.186;2023-12-20T06:11:31;7.50;99.90
52543;DHT22;38449;52.696;6.186;2023-12-20T06:13:58;7.30;99.90
52543;DHT22;38449;52.696;6.186;2023-12-20T06:16:24;7.30;99.90
52543;DHT22;38449;52.696;6.186;2023-12-20T06:18:50;7.50;99.90
52543;DHT22;38449;52.696;6.186;2023-12-20T06:21:16;7.50;99.90
52543;DHT22;38449;52.696;6.186;2023-12-20T06:23:43;7.40;99.90
52543;DHT22;38449;52.696;6.186;2023-12-20T06:26:09;7.40;99.90
52543;DHT22;38449;52.696;6.186;2023-12-20T06:28:35;7.50;99.90
52543;DHT22;38449;52.696;6.186;2023-12-20T06:31:02;7.50;99.90
52543;DHT22;38449;52.696;6.186;2023-12-20T06:33:30;7.50;99.90
52543;DHT22;38449;52.696;6.186;2023-12-20T06:35:59;7.50;99.90
52543;DHT22;38449;52.696;6.186;2023-12-20T06:38:27;7.60;99.90
52543;DHT22;38449;52.696;6.186;2023-12-20T06:40:53;7.70;99.90
52543;DHT22;38449;52.696;6.186;2023-12-20T06:43:20;7.70;99.90
52543;DHT22;38449;52.696;6.186;2023-12-20T06:45:46;7.50;99.90
52543;DHT22;38449;52.696;6.186;2023-12-20T06:48:13;7.70;99.90
52543;DHT22;38449;52.696;6.186;2023-12-20T06:50:42;7.50;99.90
52543;DHT22;38449;52.696;6.186;2023-12-20T06:53:08;7.60;99.90
52543;DHT22;38449;52.696;6.186;2023-12-20T06:55:36;7.60;99.90
52543;DHT22;38449;52.696;6.186;2023-12-20T06:58:04;7.50;99.90
52543;DHT22;38449;52.696;6.186;2023-12-20T07:00:30;7.70;99.90
52543;DHT22;38449;52.696;6.186;2023-12-20T07:02:59;7.50;99.90
52543;DHT22;38449;52.696;6.186;2023-12-20T07:05:25;7.50;99.90
52543;DHT22;38449;52.696;6.186;2023-12-20T07:07:52;7.50;99.90
52543;DHT22;38449;52.696;6.186;2023-12-20T07:10:19;7.60;99.90
52543;DHT22;38449;52.696;6.186;2023-12-20T07:12:45;7.50;99.90
52543;DHT22;38449;52.696;6.186;2023-12-20T07:15:11;7.50;99.90
52543;DHT22;38449;52.696;6.186;2023-12-20T07:17:38;7.50;99.90
52543;DHT22;38449;52.696;6.186;2023-12-20T07:20:05;7.70;99.90
52543;DHT22;38449;52.696;6.186;2023-12-20T07:22:33;7.70;99.90
52543;DHT22;38449;52.696;6.186;2023-12-20T07:25:00;7.60;99.90
52543;DHT22;38449;52.696;6.186;2023-12-20T07:27:26;7.80;99.90
52543;DHT22;38449;52.696;6.186;2023-12-20T07:29:53;7.60;99.90
52543;DHT22;38449;52.696;6.186;2023-12-20T07:32:20;7.80;99.90
52543;DHT22;38449;52.696;6.186;2023-12-20T07:34:50;7.60;99.90
52543;DHT22;38449;52.696;6.186;2023-12-20T07:37:16;7.70;99.90
52543;DHT22;38449;52.696;6.186;2023-12-20T07:39:44;7.80;99.90
52543;DHT22;38449;52.696;6.186;2023-12-20T07:42:10;7.80;99.90
52543;DHT22;38449;52.696;6.186;2023-12-20T07:44:37;7.80;99.90
52543;DHT22;38449;52.696;6.186;2023-12-20T07:47:04;7.80;99.90
52543;DHT22;38449;52.696;6.186;2023-12-20T07:49:31;7.60;99.90
52543;DHT22;38449;52.696;6.186;2023-12-20T07:51:58;7.80;99.90
52543;DHT22;38449;52.696;6.186;2023-12-20T07:54:24;7.90;99.90
52543;DHT22;38449;52.696;6.186;2023-12-20T07:56:50;7.70;99.90
52543;DHT22;38449;52.696;6.186;2023-12-20T07:59:17;7.80;99.90
52543;DHT22;38449;52.696;6.186;2023-12-20T08:01:44;7.80;99.90
52543;DHT22;38449;52.696;6.186;2023-12-20T08:04:15;7.80;99.90
52543;DHT22;38449;52.696;6.186;2023-12-20T08:06:41;7.80;99.90
52543;DHT22;38449;52.696;6.186;2023-12-20T08:09:08;7.80;99.90
52543;DHT22;38449;52.696;6.186;2023-12-20T08:11:34;7.90;99.90
52543;DHT22;38449;52.696;6.186;2023-12-20T08:14:00;7.90;99.90
52543;DHT22;38449;52.696;6.186;2023-12-20T08:16:27;7.70;99.90
52543;DHT22;38449;52.696;6.186;2023-12-20T08:18:53;7.70;99.90
52543;DHT22;38449;52.696;6.186;2023-12-20T08:21:20;7.80;99.90
52543;DHT22;38449;52.696;6.186;2023-12-20T08:23:48;7.80;99.90
52543;DHT22;38449;52.696;6.186;2023-12-20T08:26:18;8.00;99.90
52543;DHT22;38449;52.696;6.186;2023-12-20T08:28:46;7.80;99.90
52543;DHT22;38449;52.696;6.186;2023-12-20T08:31:17;7.80;99.90
52543;DHT22;38449;52.696;6.186;2023-12-20T08:33:44;7.90;99.90
52543;DHT22;38449;52.696;6.186;2023-12-20T08:36:11;7.90;99.90
52543;DHT22;38449;52.696;6.186;2023-12-20T08:38:38;7.90;99.90
52543;DHT22;38449;52.696;6.186;2023-12-20T08:41:06;8.10;99.90
52543;DHT22;38449;52.696;6.186;2023-12-20T08:43:34;7.90;99.90
52543;DHT22;38449;52.696;6.186;2023-12-20T08:46:01;8.00;99.90
52543;DHT22;38449;52.696;6.186;2023-12-20T08:48:28;7.90;99.90
52543;DHT22;38449;52.696;6.186;2023-12-20T08:50:55;7.90;99.90
52543;DHT22;38449;52.696;6.186;2023-12-20T08:53:21;8.10;99.90
52543;DHT22;38449;52.696;6.186;2023-12-20T08:55:47;8.10;99.90
52543;DHT22;38449;52.696;6.186;2023-12-20T08:58:14;8.00;99.90
52543;DHT22;38449;52.696;6.186;2023-12-20T09:00:40;8.10;99.90
52543;DHT22;38449;52.696;6.186;2023-12-20T09:03:07;8.00;99.90
52543;DHT22;38449;52.696;6.186;2023-12-20T09:05:34;8.20;99.90
52543;DHT22;38449;52.696;6.186;2023-12-20T09:08:01;8.00;99.90
52543;DHT22;38449;52.696;6.186;2023-12-20T09:10:28;8.20;99.90
52543;DHT22;38449;52.696;6.186;2023-12-20T09:12:54;8.10;99.90
52543;DHT22;38449;52.696;6.186;2023-12-20T09:15:26;8.30;99.90
52543;DHT22;38449;52.696;6.186;2023-12-20T09:17:53;8.10;99.90
52543;DHT22;38449;52.696;6.186;2023-12-20T09:20:20;8.10;99.90
52543;DHT22;38449;52.696;6.186;2023-12-20T09:22:46;8.20;99.90
52543;DHT22;38449;52.696;6.186;2023-12-20T09:25:12;8.20;99.90
52543;DHT22;38449;52.696;6.186;2023-12-20T09:27:39;8.10;99.90
52543;DHT22;38449;52.696;6.186;2023-12-20T09:30:07;8.10;99.90
52543;DHT22;38449;52.696;6.186;2023-12-20T09:32:33;8.10;99.90
52543;DHT22;38449;52.696;6.186;2023-12-20T09:35:00;8.20;99.90
52543;DHT22;38449;52.696;6.186;2023-12-20T09:37:27;8.10;99.90
52543;DHT22;38449;52.696;6.186;2023-12-20T09:39:54;8.10;99.90
52543;DHT22;38449;52.696;6.186;2023-12-20T09:45:08;8.40;99.90
52543;DHT22;38449;52.696;6.186;2023-12-20T09:47:36;8.60;99.90
52543;DHT22;38449;52.696;6.186;2023-12-20T09:50:03;8.50;99.90
52543;DHT22;38449;52.696;6.186;2023-12-20T09:52:30;8.60;99.90
52543;DHT22;38449;52.696;6.186;2023-12-20T09:54:57;8.50;99.90
52543;DHT22;38449;52.696;6.186;2023-12-20T09:57:28;8.50;99.90
52543;DHT22;38449;52.696;6.186;2023-12-20T09:59:55;8.70;99.90
52543;DHT22;38449;52.696;6.186;2023-12-20T10:02:24;8.60;99.90
52543;DHT22;38449;52.696;6.186;2023-12-20T10:04:52;8.70;99.90
52543;DHT22;38449;52.696;6.186;2023-12-20T10:07:19;8.60;99.90
52543;DHT22;38449;52.696;6.186;2023-12-20T10:09:46;8.20;99.90
52543;DHT22;38449;52.696;6.186;2023-12-20T10:12:13;7.10;99.90
52543;DHT22;38449;52.696;6.186;2023-12-20T10:14:40;6.90;99.90
52543;DHT22;38449;52.696;6.186;2023-12-20T10:17:06;6.70;99.90
52543;DHT22;38449;52.696;6.186;2023-12-20T10:19:34;6.70;99.90
52543;DHT22;38449;52.696;6.186;2023-12-20T10:22:00;6.80;99.90
52543;DHT22;38449;52.696;6.186;2023-12-20T10:24:30;6.70;99.90
52543;DHT22;38449;52.696;6.186;2023-12-20T10:27:08;6.60;99.90
52543;DHT22;38449;52.696;6.186;2023-12-20T10:29:38;6.60;99.90
52543;DHT22;38449;52.696;6.186;2023-12-20T10:32:24;6.80;99.90
52543;DHT22;38449;52.696;6.186;2023-12-20T10:34:55;6.80;99.90
52543;DHT22;38449;52.696;6.186;2023-12-20T10:37:22;6.70;99.90
52543;DHT22;38449;52.696;6.186;2023-12-20T10:39:53;6.80;99.90
52543;DHT22;38449;52.696;6.186;2023-12-20T10:42:27;6.90;99.90
52543;DHT22;38449;52.696;6.186;2023-12-20T10:44:53;6.90;99.90
52543;DHT22;38449;52.696;6.186;2023-12-20T10:47:20;6.70;99.90
52543;DHT22;38449;52.696;6.186;2023-12-20T10:49:48;6.70;99.90
52543;DHT22;38449;52.696;6.186;2023-12-20T10:52:16;6.90;99.90
52543;DHT22;38449;52.696;6.186;2023-12-20T10:54:44;6.80;99.90
52543;DHT22;38449;52.696;6.186;2023-12-20T10:57:18;6.90;99.90
52543;DHT22;38449;52.696;6.186;2023-12-20T10:59:45;6.70;99.90
52543;DHT22;38449;52.696;6.186;2023-12-20T11:02:15;6.90;99.90
52543;DHT22;38449;52.696;6.186;2023-12-20T11:08:01;6.90;99.90
52543;DHT22;38449;52.696;6.186;2023-12-20T11:13:37;6.90;99.90
52543;DHT22;38449;52.696;6.186;2023-12-20T11:16:06;6.60;99.90
52543;DHT22;38449;52.696;6.186;2023-12-20T11:18:34;6.60;99.90
52543;DHT22;38449;52.696;6.186;2023-12-20T11:21:04;6.60;99.90
52543;DHT22;38449;52.696;6.186;2023-12-20T11:23:32;6.80;99.90
52543;DHT22;38449;52.696;6.186;2023-12-20T11:26:02;6.80;99.90
52543;DHT22;38449;52.696;6.186;2023-12-20T11:28:30;6.90;99.90
52543;DHT22;38449;52.696;6.186;2023-12-20T11:30:58;6.90;99.90
52543;DHT22;38449;52.696;6.186;2023-12-20T11:33:30;6.90;99.90
52543;DHT22;38449;52.696;6.186;2023-12-20T11:35:58;6.90;99.90
52543;DHT22;38449;52.696;6.186;2023-12-20T11:38:25;6.80;99.90
52543;DHT22;38449;52.696;6.186;2023-12-20T11:40:54;7.00;99.90
52543;DHT22;38449;52.696;6.186;2023-12-20T11:43:53;6.90;99.90
52543;DHT22;38449;52.696;6.186;2023-12-20T11:46:20;6.80;99.90
52543;DHT22;38449;52.696;6.186;2023-12-20T11:48:48;6.90;99.90
52543;DHT22;38449;52.696;6.186;2023-12-20T11:51:17;6.70;99.90
52543;DHT22;38449;52.696;6.186;2023-12-20T11:53:44;7.00;99.90
52543;DHT22;38449;52.696;6.186;2023-12-20T11:56:11;6.80;99.90
52543;DHT22;38449;52.696;6.186;2023-12-20T11:58:38;7.00;99.90
52543;DHT22;38449;52.696;6.186;2023-12-20T12:01:05;6.80;99.90
52543;DHT22;38449;52.696;6.186;2023-12-20T12:03:33;6.80;99.90
52543;DHT22;38449;52.696;6.186;2023-12-20T12:05:59;7.00;99.90
52543;DHT22;38449;52.696;6.186;2023-12-20T12:08:27;6.80;99.90
52543;DHT22;38449;52.696;6.186;2023-12-20T12:10:53;7.10;99.90
52543;DHT22;38449;52.696;6.186;2023-12-20T12:13:20;6.90;99.90
52543;DHT22;38449;52.696;6.186;2023-12-20T12:15:48;7.10;99.90
52543;DHT22;38449;52.696;6.186;2023-12-20T12:18:18;7.00;99.90
52543;DHT22;38449;52.696;6.186;2023-12-20T12:20:44;7.00;99.90
52543;DHT22;38449;52.696;6.186;2023-12-20T12:23:12;6.80;99.90
52543;DHT22;38449;52.696;6.186;2023-12-20T12:25:39;7.10;99.90
52543;DHT22;38449;52.696;6.186;2023-12-20T12:28:05;7.10;99.90
52543;DHT22;38449;52.696;6.186;2023-12-20T12:30:32;7.10;99.90
52543;DHT22;38449;52.696;6.186;2023-12-20T12:32:58;6.90;99.90
52543;DHT22;38449;52.696;6.186;2023-12-20T12:35:25;7.00;99.90
52543;DHT22;38449;52.696;6.186;2023-12-20T12:37:51;7.00;99.90
52543;DHT22;38449;52.696;6.186;2023-12-20T12:40:18;7.00;99.90
52543;DHT22;38449;52.696;6.186;2023-12-20T12:42:46;7.10;99.90
52543;DHT22;38449;52.696;6.186;2023-12-20T12:45:12;7.20;99.90
52543;DHT22;38449;52.696;6.186;2023-12-20T12:47:39;7.10;99.90
52543;DHT22;38449;52.696;6.186;2023-12-20T12:50:05;7.20;99.90
52543;DHT22;38449;52.696;6.186;2023-12-20T12:52:32;7.20;99.90
52543;DHT22;38449;52.696;6.186;2023-12-20T12:55:00;7.30;99.90
52543;DHT22;38449;52.696;6.186;2023-12-20T12:57:26;7.30;99.90
52543;DHT22;38449;52.696;6.186;2023-12-20T12:59:53;7.30;99.90
52543;DHT22;38449;52.696;6.186;2023-12-20T13:02:19;7.30;99.90
52543;DHT22;38449;52.696;6.186;2023-12-20T13:04:45;7.30;99.90
52543;DHT22;38449;52.696;6.186;2023-12-20T13:07:12;7.10;99.90
52543;DHT22;38449;52.696;6.186;2023-12-20T13:09:39;7.20;99.90
52543;DHT22;38449;52.696;6.186;2023-12-20T13:12:06;7.30;99.90
52543;DHT22;38449;52.696;6.186;2023-12-20T13:14:34;7.40;99.90
52543;DHT22;38449;52.696;6.186;2023-12-20T13:17:03;7.20;99.90
52543;DHT22;38449;52.696;6.186;2023-12-20T13:19:30;7.40;99.90
52543;DHT22;38449;52.696;6.186;2023-12-20T13:21:56;7.30;99.90
52543;DHT22;38449;52.696;6.186;2023-12-20T13:24:24;7.30;99.90
52543;DHT22;38449;52.696;6.186;2023-12-20T13:26:52;7.10;99.90
52543;DHT22;38449;52.696;6.186;2023-12-20T13:29:19;7.20;99.90
52543;DHT22;38449;52.696;6.186;2023-12-20T13:31:45;7.30;99.90
52543;DHT22;38449;52.696;6.186;2023-12-20T13:34:11;7.20;99.90
52543;DHT22;38449;52.696;6.186;2023-12-20T13:36:41;7.20;99.90
52543;DHT22;38449;52.696;6.186;2023-12-20T13:39:07;7.40;99.90
52543;DHT22;38449;52.696;6.186;2023-12-20T13:41:36;7.30;99.90
52543;DHT22;38449;52.696;6.186;2023-12-20T13:44:03;7.20;99.90
52543;DHT22;38449;52.696;6.186;2023-12-20T13:46:30;7.40;99.90
52543;DHT22;38449;52.696;6.186;2023-12-20T13:48:57;7.20;99.90
52543;DHT22;38449;52.696;6.186;2023-12-20T13:51:24;7.40;99.90
52543;DHT22;38449;52.696;6.186;2023-12-20T13:53:50;7.30;99.90
52543;DHT22;38449;52.696;6.186;2023-12-20T13:56:16;7.40;99.90
52543;DHT22;38449;52.696;6.186;2023-12-20T13:58:43;7.50;99.90
52543;DHT22;38449;52.696;6.186;2023-12-20T14:01:15;7.70;99.90
52543;DHT22;38449;52.696;6.186;2023-12-20T14:03:43;7.80;99.90
52543;DHT22;38449;52.696;6.186;2023-12-20T14:06:10;7.70;99.90
52543;DHT22;38449;52.696;6.186;2023-12-20T14:08:36;7.70;99.90
52543;DHT22;38449;52.696;6.186;2023-12-20T14:11:04;7.80;99.90
52543;DHT22;38449;52.696;6.186;2023-12-20T14:13:31;8.10;99.90
52543;DHT22;38449;52.696;6.186;2023-12-20T14:15:58;8.10;99.90
52543;DHT22;38449;52.696;6.186;2023-12-20T14:18:26;8.00;99.90
52543;DHT22;38449;52.696;6.186;2023-12-20T14:20:53;8.00;99.90
52543;DHT22;38449;52.696;6.186;2023-12-20T14:23:21;8.10;99.90
52543;DHT22;38449;52.696;6.186;2023-12-20T14:25:49;8.10;99.90
52543;DHT22;38449;52.696;6.186;2023-12-20T14:28:15;8.20;99.90
52543;DHT22;38449;52.696;6.186;2023-12-20T14:30:41;8.30;99.90
52543;DHT22;38449;52.696;6.186;2023-12-20T14:33:08;8.10;99.90
52543;DHT22;38449;52.696;6.186;2023-12-20T14:35:34;8.10;99.90
52543;DHT22;38449;52.696;6.186;2023-12-20T14:38:01;8.10;99.90
52543;DHT22;38449;52.696;6.186;2023-12-20T14:40:27;8.10;99.90
52543;DHT22;38449;52.696;6.186;2023-12-20T14:42:53;8.20;99.90
52543;DHT22;38449;52.696;6.186;2023-12-20T14:45:20;8.20;99.90
52543;DHT22;38449;52.696;6.186;2023-12-20T14:47:46;8.00;99.90
52543;DHT22;38449;52.696;6.186;2023-12-20T14:50:17;8.00;99.90
52543;DHT22;38449;52.696;6.186;2023-12-20T14:52:45;8.00;99.90
52543;DHT22;38449;52.696;6.186;2023-12-20T14:55:11;8.00;99.90
52543;DHT22;38449;52.696;6.186;2023-12-20T14:57:38;8.10;99.90
52543;DHT22;38449;52.696;6.186;2023-12-20T15:00:07;8.10;99.90
52543;DHT22;38449;52.696;6.186;2023-12-20T15:02:34;8.10;99.90
52543;DHT22;38449;52.696;6.186;2023-12-20T15:05:00;8.00;99.90
52543;DHT22;38449;52.696;6.186;2023-12-20T15:07:27;8.20;99.90
52543;DHT22;38449;52.696;6.186;2023-12-20T15:09:54;8.00;99.90
52543;DHT22;38449;52.696;6.186;2023-12-20T15:12:21;8.20;99.90
52543;DHT22;38449;52.696;6.186;2023-12-20T15:14:47;8.10;99.90
52543;DHT22;38449;52.696;6.186;2023-12-20T15:17:15;8.10;99.90
52543;DHT22;38449;52.696;6.186;2023-12-20T15:19:41;8.00;99.90
52543;DHT22;38449;52.696;6.186;2023-12-20T15:22:09;8.10;99.90
52543;DHT22;38449;52.696;6.186;2023-12-20T15:24:37;8.10;99.90
52543;DHT22;38449;52.696;6.186;2023-12-20T15:27:05;8.00;99.90
52543;DHT22;38449;52.696;6.186;2023-12-20T15:29:32;8.00;99.90
52543;DHT22;38449;52.696;6.186;2023-12-20T15:31:58;8.20;99.90
52543;DHT22;38449;52.696;6.186;2023-12-20T15:34:25;8.00;99.90
52543;DHT22;38449;52.696;6.186;2023-12-20T15:36:51;8.20;99.90
52543;DHT22;38449;52.696;6.186;2023-12-20T15:39:18;8.10;99.90
52543;DHT22;38449;52.696;6.186;2023-12-20T15:41:44;8.10;99.90
52543;DHT22;38449;52.696;6.186;2023-12-20T15:44:12;7.90;99.90
52543;DHT22;38449;52.696;6.186;2023-12-20T15:46:39;8.10;99.90
52543;DHT22;38449;52.696;6.186;2023-12-20T15:49:06;8.10;99.90
52543;DHT22;38449;52.696;6.186;2023-12-20T15:51:33;7.90;99.90